首页
METAR-TAF:

METAR-TAF

机场 :

乔治敦, 阿森松岛

阿森松島皇家空軍基地

纬度: 07-58S, 经度: 014-24W, 海拔: 86米

当前天气观测

该预报发布于1小时和41分钟前的12:50 UTC
风速15节,风向南转南东
温度 28°C
湿度 62%
气压 1012 hPa
能见度10公里或以上
少量云层高于1800英尺

METAR: FHAW 221250Z 15015KT 9999 FEW018 28/20 Q1012 BLU NOSIG

时间: 14:31 (14:31 UTC)

预报

该预报发布于4小时和1分钟前的10:30 UTC
预报有效从22日的 12点(UTC)到 23日的 06点(UTC)
风速13节,风向东南
能见度10公里或以上
少量云层高于1800英尺
散云层高于4500英尺
几率 30% :
短暂存在
从 22日的 18点(UTC)到 23日的 03点(UTC)
散云层高于1500英尺

TAF: FHAW 221030Z 2212/2306 13013KT 9999 FEW018 SCT045 PROB30 TEMPO 2218/2303 SCT015

超过4000个机场的气象观测和天气预报(METAR&TAF报告)。

可查询的气象台以黄色和红色小点在地图上表示。

将鼠标移到小点上方,可查看气象台名称。

然后点击查看天气观测和预报。

如需切换地图:点击带黑十字的绿色按钮放大地图;点击带横线的绿色按钮缩小地图;或者点击绿色箭头查看邻近地区的地图。


METAR-TAF: